sensor_id;sensor_type;location;lat;lon;timestamp;pressure;altitude;pressure_sealevel;temperature;humidity
39051;BME280;24805;55.852;37.644;2023-12-20T00:01:07;97543.03;;;5.58;71.31
39051;BME280;24805;55.852;37.644;2023-12-20T00:06:10;97573.75;;;5.51;71.63
39051;BME280;24805;55.852;37.644;2023-12-20T00:11:12;97571.44;;;5.41;71.55
39051;BME280;24805;55.852;37.644;2023-12-20T00:16:14;97569.88;;;5.47;71.90
39051;BME280;24805;55.852;37.644;2023-12-20T00:21:16;97556.47;;;5.42;71.60
39051;BME280;24805;55.852;37.644;2023-12-20T00:26:19;97582.56;;;5.37;71.63
39051;BME280;24805;55.852;37.644;2023-12-20T00:31:21;97577.31;;;5.37;72.30
39051;BME280;24805;55.852;37.644;2023-12-20T00:36:23;97574.69;;;5.37;71.54
39051;BME280;24805;55.852;37.644;2023-12-20T00:41:25;97588.38;;;5.32;71.90
39051;BME280;24805;55.852;37.644;2023-12-20T00:46:28;97589.66;;;5.43;71.55
39051;BME280;24805;55.852;37.644;2023-12-20T00:51:30;97586.56;;;5.33;71.72
39051;BME280;24805;55.852;37.644;2023-12-20T00:56:32;97579.69;;;5.32;72.03
39051;BME280;24805;55.852;37.644;2023-12-20T01:01:34;97574.19;;;5.27;72.01
39051;BME280;24805;55.852;37.644;2023-12-20T01:06:37;97565.66;;;5.25;71.79
39051;BME280;24805;55.852;37.644;2023-12-20T01:11:39;97553.69;;;5.15;71.65
39051;BME280;24805;55.852;37.644;2023-12-20T01:16:41;97553.56;;;5.02;71.74
39051;BME280;24805;55.852;37.644;2023-12-20T01:21:43;97552.66;;;4.89;71.94
39051;BME280;24805;55.852;37.644;2023-12-20T01:26:46;97542.06;;;4.82;71.96
39051;BME280;24805;55.852;37.644;2023-12-20T01:31:48;97551.09;;;4.73;72.69
39051;BME280;24805;55.852;37.644;2023-12-20T01:36:50;97547.41;;;4.67;72.61
39051;BME280;24805;55.852;37.644;2023-12-20T01:41:53;97547.34;;;4.61;72.89
39051;BME280;24805;55.852;37.644;2023-12-20T01:46:56;97538.63;;;4.60;72.98
39051;BME280;24805;55.852;37.644;2023-12-20T01:51:59;97520.88;;;4.62;72.50
39051;BME280;24805;55.852;37.644;2023-12-20T01:57:01;97509.19;;;4.65;73.14
39051;BME280;24805;55.852;37.644;2023-12-20T02:02:05;97524.09;;;4.79;73.19
39051;BME280;24805;55.852;37.644;2023-12-20T02:07:08;97514.44;;;4.86;72.63
39051;BME280;24805;55.852;37.644;2023-12-20T02:12:11;97521.88;;;4.82;72.57
39051;BME280;24805;55.852;37.644;2023-12-20T02:17:13;97501.47;;;4.84;72.36
39051;BME280;24805;55.852;37.644;2023-12-20T02:22:15;97494.56;;;4.77;72.20
39051;BME280;24805;55.852;37.644;2023-12-20T02:27:19;97485.72;;;4.84;71.88
39051;BME280;24805;55.852;37.644;2023-12-20T02:32:22;97502.19;;;4.72;72.09
39051;BME280;24805;55.852;37.644;2023-12-20T02:37:28;97501.00;;;4.74;71.82
39051;BME280;24805;55.852;37.644;2023-12-20T02:42:30;97508.50;;;4.77;71.65
39051;BME280;24805;55.852;37.644;2023-12-20T02:47:32;97517.03;;;4.79;71.71
39051;BME280;24805;55.852;37.644;2023-12-20T02:52:34;97524.03;;;5.00;71.60
39051;BME280;24805;55.852;37.644;2023-12-20T02:57:37;97519.81;;;4.99;71.62
39051;BME280;24805;55.852;37.644;2023-12-20T03:02:43;97514.13;;;5.02;71.42
39051;BME280;24805;55.852;37.644;2023-12-20T03:07:46;97506.94;;;5.11;70.66
39051;BME280;24805;55.852;37.644;2023-12-20T03:12:49;97499.50;;;5.14;70.94
39051;BME280;24805;55.852;37.644;2023-12-20T03:17:51;97497.88;;;5.20;70.69
39051;BME280;24805;55.852;37.644;2023-12-20T03:22:53;97512.72;;;5.28;71.05
39051;BME280;24805;55.852;37.644;2023-12-20T03:27:56;97504.25;;;5.32;71.03
39051;BME280;24805;55.852;37.644;2023-12-20T03:32:58;97513.94;;;5.32;70.65
39051;BME280;24805;55.852;37.644;2023-12-20T03:38:00;97514.53;;;5.27;71.41
39051;BME280;24805;55.852;37.644;2023-12-20T03:43:03;97499.56;;;5.28;71.23
39051;BME280;24805;55.852;37.644;2023-12-20T03:48:05;97525.41;;;5.17;70.45
39051;BME280;24805;55.852;37.644;2023-12-20T03:53:08;97506.84;;;4.98;71.31
39051;BME280;24805;55.852;37.644;2023-12-20T03:58:10;97530.34;;;5.06;71.67
39051;BME280;24805;55.852;37.644;2023-12-20T04:03:13;97522.09;;;5.09;71.65
39051;BME280;24805;55.852;37.644;2023-12-20T04:08:15;97515.44;;;5.13;71.64
39051;BME280;24805;55.852;37.644;2023-12-20T04:13:17;97526.81;;;5.20;71.15
39051;BME280;24805;55.852;37.644;2023-12-20T04:18:20;97513.25;;;5.16;71.66
39051;BME280;24805;55.852;37.644;2023-12-20T04:23:22;97518.13;;;5.19;71.51
39051;BME280;24805;55.852;37.644;2023-12-20T04:28:24;97526.81;;;5.20;71.76
39051;BME280;24805;55.852;37.644;2023-12-20T04:33:27;97521.13;;;5.16;71.55
39051;BME280;24805;55.852;37.644;2023-12-20T04:38:29;97533.91;;;5.19;71.46
39051;BME280;24805;55.852;37.644;2023-12-20T04:43:32;97517.53;;;5.24;71.31
39051;BME280;24805;55.852;37.644;2023-12-20T04:48:34;97526.81;;;5.20;70.84
39051;BME280;24805;55.852;37.644;2023-12-20T04:53:36;97520.31;;;5.16;70.65
39051;BME280;24805;55.852;37.644;2023-12-20T04:58:38;97530.59;;;5.11;70.44
39051;BME280;24805;55.852;37.644;2023-12-20T05:03:40;97532.41;;;5.10;70.39
39051;BME280;24805;55.852;37.644;2023-12-20T05:08:43;97535.09;;;5.17;70.75
39051;BME280;24805;55.852;37.644;2023-12-20T05:13:45;97542.78;;;5.18;70.72
39051;BME280;24805;55.852;37.644;2023-12-20T05:18:51;97546.00;;;5.20;70.42
39051;BME280;24805;55.852;37.644;2023-12-20T05:23:54;97548.25;;;5.24;70.93
39051;BME280;24805;55.852;37.644;2023-12-20T05:28:57;97537.75;;;5.24;70.56
39051;BME280;24805;55.852;37.644;2023-12-20T05:33:59;97545.59;;;5.17;70.60
39051;BME280;24805;55.852;37.644;2023-12-20T05:39:01;97529.59;;;5.12;70.36
39051;BME280;24805;55.852;37.644;2023-12-20T05:44:05;97555.59;;;5.28;70.50
39051;BME280;24805;55.852;37.644;2023-12-20T05:49:07;97554.78;;;5.28;70.33
39051;BME280;24805;55.852;37.644;2023-12-20T05:54:10;97562.53;;;5.36;70.53
39051;BME280;24805;55.852;37.644;2023-12-20T05:59:12;97558.84;;;5.30;70.01
39051;BME280;24805;55.852;37.644;2023-12-20T06:04:14;97550.75;;;5.32;69.96
39051;BME280;24805;55.852;37.644;2023-12-20T06:09:16;97552.69;;;5.16;70.00
39051;BME280;24805;55.852;37.644;2023-12-20T06:14:19;97553.53;;;5.24;69.60
39051;BME280;24805;55.852;37.644;2023-12-20T06:19:21;97552.09;;;5.21;69.25
39051;BME280;24805;55.852;37.644;2023-12-20T06:24:23;97563.84;;;5.25;69.05
39051;BME280;24805;55.852;37.644;2023-12-20T06:29:29;97568.16;;;5.33;69.28
39051;BME280;24805;55.852;37.644;2023-12-20T06:34:33;97577.31;;;5.37;69.47
39051;BME280;24805;55.852;37.644;2023-12-20T06:39:35;97575.19;;;5.53;69.39
39051;BME280;24805;55.852;37.644;2023-12-20T06:44:37;97576.84;;;5.61;68.57
39051;BME280;24805;55.852;37.644;2023-12-20T06:49:41;97567.09;;;5.55;68.79
39051;BME280;24805;55.852;37.644;2023-12-20T06:54:43;97575.63;;;5.57;68.82
39051;BME280;24805;55.852;37.644;2023-12-20T06:59:45;97577.25;;;5.58;68.50
39051;BME280;24805;55.852;37.644;2023-12-20T07:04:48;97572.63;;;5.67;68.61
39051;BME280;24805;55.852;37.644;2023-12-20T07:09:50;97578.56;;;5.75;67.62
39051;BME280;24805;55.852;37.644;2023-12-20T07:14:52;97582.44;;;5.79;67.35
39051;BME280;24805;55.852;37.644;2023-12-20T07:19:54;97581.28;;;5.88;67.25
39051;BME280;24805;55.852;37.644;2023-12-20T07:24:58;97592.97;;;5.86;66.96
39051;BME280;24805;55.852;37.644;2023-12-20T07:30:00;97570.69;;;5.82;66.69
39051;BME280;24805;55.852;37.644;2023-12-20T07:35:05;97581.50;;;5.94;66.89
39051;BME280;24805;55.852;37.644;2023-12-20T07:40:08;97597.31;;;5.94;67.00
39051;BME280;24805;55.852;37.644;2023-12-20T07:45:10;97596.19;;;5.81;67.35
39051;BME280;24805;55.852;37.644;2023-12-20T07:50:13;97612.72;;;5.97;67.05
39051;BME280;24805;55.852;37.644;2023-12-20T07:55:16;97628.06;;;5.93;66.67
39051;BME280;24805;55.852;37.644;2023-12-20T08:00:19;97614.66;;;5.88;66.47
39051;BME280;24805;55.852;37.644;2023-12-20T08:05:21;97600.75;;;5.94;66.23
39051;BME280;24805;55.852;37.644;2023-12-20T08:10:24;97621.91;;;6.14;65.81
39051;BME280;24805;55.852;37.644;2023-12-20T08:15:27;97613.53;;;6.51;64.59
39051;BME280;24805;55.852;37.644;2023-12-20T08:20:30;97613.56;;;6.65;63.82
39051;BME280;24805;55.852;37.644;2023-12-20T08:25:41;97630.84;;;6.80;63.55
39051;BME280;24805;55.852;37.644;2023-12-20T08:30:44;97608.34;;;6.71;63.75
39051;BME280;24805;55.852;37.644;2023-12-20T08:35:47;97616.44;;;6.70;63.75
39051;BME280;24805;55.852;37.644;2023-12-20T08:40:49;97607.88;;;6.61;63.80
39051;BME280;24805;55.852;37.644;2023-12-20T08:45:51;97603.06;;;6.71;63.52
39051;BME280;24805;55.852;37.644;2023-12-20T08:50:54;97601.25;;;6.78;63.61
39051;BME280;24805;55.852;37.644;2023-12-20T08:55:56;97629.81;;;6.81;63.65
39051;BME280;24805;55.852;37.644;2023-12-20T09:01:03;97602.63;;;6.61;63.78
39051;BME280;24805;55.852;37.644;2023-12-20T09:06:06;97604.44;;;6.54;63.98
39051;BME280;24805;55.852;37.644;2023-12-20T09:11:08;97602.97;;;6.38;64.59
39051;BME280;24805;55.852;37.644;2023-12-20T09:16:11;97601.34;;;6.37;64.80
39051;BME280;24805;55.852;37.644;2023-12-20T09:21:15;97605.38;;;6.40;64.82
39051;BME280;24805;55.852;37.644;2023-12-20T09:26:17;97608.00;;;6.40;64.92
39051;BME280;24805;55.852;37.644;2023-12-20T09:31:19;97601.97;;;6.39;65.01
39051;BME280;24805;55.852;37.644;2023-12-20T09:36:21;97603.38;;;6.42;64.72
39051;BME280;24805;55.852;37.644;2023-12-20T09:41:25;97613.28;;;6.40;65.60
39051;BME280;24805;55.852;37.644;2023-12-20T09:46:32;97608.59;;;6.29;65.74
39051;BME280;24805;55.852;37.644;2023-12-20T09:51:36;97598.44;;;6.19;66.04
39051;BME280;24805;55.852;37.644;2023-12-20T09:56:38;97590.75;;;6.24;65.64
39051;BME280;24805;55.852;37.644;2023-12-20T10:01:41;97599.59;;;6.10;65.92
39051;BME280;24805;55.852;37.644;2023-12-20T10:06:44;97594.97;;;6.12;66.21
39051;BME280;24805;55.852;37.644;2023-12-20T10:11:46;97612.63;;;6.18;65.67
39051;BME280;24805;55.852;37.644;2023-12-20T10:16:49;97590.66;;;6.04;66.21
39051;BME280;24805;55.852;37.644;2023-12-20T10:21:51;97604.06;;;6.09;66.90
39051;BME280;24805;55.852;37.644;2023-12-20T10:27:07;97588.69;;;6.19;66.53
39051;BME280;24805;55.852;37.644;2023-12-20T10:32:23;97629.25;;;6.25;66.59
39051;BME280;24805;55.852;37.644;2023-12-20T10:37:28;97596.34;;;6.08;65.93
39051;BME280;24805;55.852;37.644;2023-12-20T10:42:31;97611.19;;;6.22;66.18
39051;BME280;24805;55.852;37.644;2023-12-20T10:47:35;97628.50;;;6.38;66.10
39051;BME280;24805;55.852;37.644;2023-12-20T10:52:42;97613.91;;;6.42;65.48
39051;BME280;24805;55.852;37.644;2023-12-20T10:57:46;97586.94;;;6.40;65.88
39051;BME280;24805;55.852;37.644;2023-12-20T11:02:53;97608.78;;;6.27;65.50
39051;BME280;24805;55.852;37.644;2023-12-20T11:13:39;97583.09;;;6.42;65.23
39051;BME280;24805;55.852;37.644;2023-12-20T11:18:45;97595.03;;;6.32;65.04
39051;BME280;24805;55.852;37.644;2023-12-20T11:23:47;97583.31;;;6.41;65.27
39051;BME280;24805;55.852;37.644;2023-12-20T11:28:49;97595.03;;;6.32;65.35
39051;BME280;24805;55.852;37.644;2023-12-20T11:34:14;97590.44;;;6.53;65.28
39051;BME280;24805;55.852;37.644;2023-12-20T11:39:21;97591.19;;;6.34;65.13
39051;BME280;24805;55.852;37.644;2023-12-20T11:44:25;97605.59;;;6.38;64.39
39051;BME280;24805;55.852;37.644;2023-12-20T11:49:28;97604.59;;;6.39;64.93
39051;BME280;24805;55.852;37.644;2023-12-20T11:54:32;97604.59;;;6.46;64.75
39051;BME280;24805;55.852;37.644;2023-12-20T11:59:36;97611.06;;;6.43;64.81
39051;BME280;24805;55.852;37.644;2023-12-20T12:04:41;97617.53;;;6.41;65.44
39051;BME280;24805;55.852;37.644;2023-12-20T12:09:44;97614.88;;;6.28;65.06
39051;BME280;24805;55.852;37.644;2023-12-20T12:14:46;97606.31;;;6.12;65.30
39051;BME280;24805;55.852;37.644;2023-12-20T12:19:48;97625.34;;;6.14;65.87
39051;BME280;24805;55.852;37.644;2023-12-20T12:24:51;97609.66;;;6.00;66.24
39051;BME280;24805;55.852;37.644;2023-12-20T12:30:01;97637.31;;;6.17;66.69
39051;BME280;24805;55.852;37.644;2023-12-20T12:35:07;97639.66;;;5.99;67.37
39051;BME280;24805;55.852;37.644;2023-12-20T12:40:12;97654.81;;;5.97;67.64
39051;BME280;24805;55.852;37.644;2023-12-20T12:45:15;97657.59;;;5.88;67.32
39051;BME280;24805;55.852;37.644;2023-12-20T12:50:18;97666.31;;;5.89;67.31
39051;BME280;24805;55.852;37.644;2023-12-20T12:55:20;97672.81;;;5.93;67.72
39051;BME280;24805;55.852;37.644;2023-12-20T13:00:22;97667.47;;;5.86;68.29
39051;BME280;24805;55.852;37.644;2023-12-20T13:05:26;97672.47;;;5.75;68.60
39051;BME280;24805;55.852;37.644;2023-12-20T13:10:28;97671.78;;;5.66;69.74
39051;BME280;24805;55.852;37.644;2023-12-20T13:15:31;97645.19;;;5.54;69.43
39051;BME280;24805;55.852;37.644;2023-12-20T13:20:33;97647.53;;;5.71;69.53
39051;BME280;24805;55.852;37.644;2023-12-20T13:25:35;97649.09;;;5.65;69.67
39051;BME280;24805;55.852;37.644;2023-12-20T13:30:38;97652.13;;;5.62;69.82
39051;BME280;24805;55.852;37.644;2023-12-20T13:35:41;97656.38;;;5.63;70.30
39051;BME280;24805;55.852;37.644;2023-12-20T13:40:43;97647.00;;;5.54;68.91
39051;BME280;24805;55.852;37.644;2023-12-20T13:45:45;97643.44;;;5.40;69.16
39051;BME280;24805;55.852;37.644;2023-12-20T13:50:48;97652.13;;;5.34;69.20
39051;BME280;24805;55.852;37.644;2023-12-20T13:55:51;97649.97;;;5.23;69.74
39051;BME280;24805;55.852;37.644;2023-12-20T14:00:53;97674.16;;;5.33;68.93
39051;BME280;24805;55.852;37.644;2023-12-20T14:05:56;97683.66;;;5.34;69.38
39051;BME280;24805;55.852;37.644;2023-12-20T14:10:58;97695.03;;;5.41;69.11
39051;BME280;24805;55.852;37.644;2023-12-20T14:16:00;97683.53;;;5.42;68.78
39051;BME280;24805;55.852;37.644;2023-12-20T14:21:04;97703.94;;;5.40;68.81
39051;BME280;24805;55.852;37.644;2023-12-20T14:26:07;97680.97;;;5.28;69.13
39051;BME280;24805;55.852;37.644;2023-12-20T14:31:13;97703.38;;;5.45;69.23
39051;BME280;24805;55.852;37.644;2023-12-20T14:36:15;97702.34;;;5.39;69.14
39051;BME280;24805;55.852;37.644;2023-12-20T14:41:19;97698.50;;;5.42;69.80
39051;BME280;24805;55.852;37.644;2023-12-20T14:46:21;97684.13;;;5.38;68.79
39051;BME280;24805;55.852;37.644;2023-12-20T14:51:24;97709.88;;;5.49;68.98
39051;BME280;24805;55.852;37.644;2023-12-20T14:56:26;97692.38;;;5.35;68.53
39051;BME280;24805;55.852;37.644;2023-12-20T15:01:29;97717.91;;;5.41;68.39
39051;BME280;24805;55.852;37.644;2023-12-20T15:06:33;97691.03;;;5.24;68.40
39051;BME280;24805;55.852;37.644;2023-12-20T15:11:35;97723.38;;;5.39;68.99
39051;BME280;24805;55.852;37.644;2023-12-20T15:16:38;97726.78;;;5.40;68.41
39051;BME280;24805;55.852;37.644;2023-12-20T15:21:40;97723.16;;;5.41;69.13
39051;BME280;24805;55.852;37.644;2023-12-20T15:26:48;97722.31;;;5.34;68.49
39051;BME280;24805;55.852;37.644;2023-12-20T15:31:51;97720.78;;;5.25;68.71
39051;BME280;24805;55.852;37.644;2023-12-20T15:36:53;97718.72;;;5.20;68.61
39051;BME280;24805;55.852;37.644;2023-12-20T15:41:56;97722.59;;;5.24;68.68
39051;BME280;24805;55.852;37.644;2023-12-20T15:46:58;97736.94;;;5.22;68.44
39051;BME280;24805;55.852;37.644;2023-12-20T15:52:02;97745.22;;;5.18;68.85
39051;BME280;24805;55.852;37.644;2023-12-20T15:57:08;97741.19;;;5.23;68.38
39051;BME280;24805;55.852;37.644;2023-12-20T16:02:11;97753.97;;;5.26;67.97
39051;BME280;24805;55.852;37.644;2023-12-20T16:07:13;97764.56;;;5.32;68.05
39051;BME280;24805;55.852;37.644;2023-12-20T16:12:16;97763.00;;;5.38;67.92
39051;BME280;24805;55.852;37.644;2023-12-20T16:17:18;97777.56;;;5.40;68.18
39051;BME280;24805;55.852;37.644;2023-12-20T16:22:21;97775.09;;;5.53;67.94
39051;BME280;24805;55.852;37.644;2023-12-20T16:27:24;97789.09;;;5.61;67.88
39051;BME280;24805;55.852;37.644;2023-12-20T16:32:26;97775.72;;;5.56;67.12
39051;BME280;24805;55.852;37.644;2023-12-20T16:37:28;97782.34;;;5.51;66.95
39051;BME280;24805;55.852;37.644;2023-12-20T16:42:31;97797.44;;;5.43;66.83
39051;BME280;24805;55.852;37.644;2023-12-20T16:47:33;97772.09;;;5.20;67.38
39051;BME280;24805;55.852;37.644;2023-12-20T16:52:36;97773.00;;;5.28;66.85
39051;BME280;24805;55.852;37.644;2023-12-20T16:57:39;97757.03;;;5.29;67.04
39051;BME280;24805;55.852;37.644;2023-12-20T17:02:41;97762.75;;;5.33;66.52
39051;BME280;24805;55.852;37.644;2023-12-20T17:07:44;97784.22;;;5.36;66.32
39051;BME280;24805;55.852;37.644;2023-12-20T17:12:46;97776.34;;;5.36;65.85
39051;BME280;24805;55.852;37.644;2023-12-20T17:17:49;97775.16;;;5.39;65.76
39051;BME280;24805;55.852;37.644;2023-12-20T17:22:52;97785.41;;;5.34;64.63
39051;BME280;24805;55.852;37.644;2023-12-20T17:27:54;97775.13;;;5.17;63.88
39051;BME280;24805;55.852;37.644;2023-12-20T17:32:58;97775.16;;;5.03;62.69
39051;BME280;24805;55.852;37.644;2023-12-20T17:38:00;97780.03;;;5.06;63.49
39051;BME280;24805;55.852;37.644;2023-12-20T17:43:03;97783.78;;;4.97;63.43
39051;BME280;24805;55.852;37.644;2023-12-20T17:48:06;97769.66;;;4.83;63.33
39051;BME280;24805;55.852;37.644;2023-12-20T17:53:08;97774.75;;;4.70;62.80
39051;BME280;24805;55.852;37.644;2023-12-20T17:58:14;97786.88;;;4.71;62.46
39051;BME280;24805;55.852;37.644;2023-12-20T18:03:18;97792.03;;;4.64;61.68
39051;BME280;24805;55.852;37.644;2023-12-20T18:08:20;97785.91;;;4.57;60.72
39051;BME280;24805;55.852;37.644;2023-12-20T18:13:22;97796.84;;;4.61;60.64
39051;BME280;24805;55.852;37.644;2023-12-20T18:18:25;97790.25;;;4.65;60.83
39051;BME280;24805;55.852;37.644;2023-12-20T18:23:27;97784.34;;;4.63;61.08
39051;BME280;24805;55.852;37.644;2023-12-20T18:28:30;97786.88;;;4.71;60.86
39051;BME280;24805;55.852;37.644;2023-12-20T18:33:32;97790.69;;;4.68;60.41
39051;BME280;24805;55.852;37.644;2023-12-20T18:38:37;97788.16;;;4.60;60.74
39051;BME280;24805;55.852;37.644;2023-12-20T18:43:40;97782.28;;;4.58;61.06
39051;BME280;24805;55.852;37.644;2023-12-20T18:48:43;97770.41;;;4.47;61.20
39051;BME280;24805;55.852;37.644;2023-12-20T18:53:47;97759.00;;;4.26;61.25
39051;BME280;24805;55.852;37.644;2023-12-20T18:58:49;97787.34;;;4.30;61.95
39051;BME280;24805;55.852;37.644;2023-12-20T19:03:51;97790.50;;;4.26;61.75
39051;BME280;24805;55.852;37.644;2023-12-20T19:08:53;97795.75;;;4.26;61.65
39051;BME280;24805;55.852;37.644;2023-12-20T19:13:56;97787.69;;;4.27;61.70
39051;BME280;24805;55.852;37.644;2023-12-20T19:18:58;97795.84;;;4.32;60.87
39051;BME280;24805;55.852;37.644;2023-12-20T19:24:00;97799.56;;;4.38;61.13
39051;BME280;24805;55.852;37.644;2023-12-20T19:29:03;97803.28;;;4.43;61.18
39051;BME280;24805;55.852;37.644;2023-12-20T19:34:05;97802.63;;;4.41;61.29
39051;BME280;24805;55.852;37.644;2023-12-20T19:39:07;97784.00;;;4.36;61.09
39051;BME280;24805;55.852;37.644;2023-12-20T19:44:10;97784.81;;;4.37;61.22
39051;BME280;24805;55.852;37.644;2023-12-20T19:49:12;97776.56;;;4.40;60.96
39051;BME280;24805;55.852;37.644;2023-12-20T19:54:14;97784.34;;;4.48;60.85
39051;BME280;24805;55.852;37.644;2023-12-20T19:59:17;97781.00;;;4.54;61.10
39051;BME280;24805;55.852;37.644;2023-12-20T20:04:19;97788.59;;;4.64;60.64
39051;BME280;24805;55.852;37.644;2023-12-20T20:09:21;97787.72;;;4.71;60.65
39051;BME280;24805;55.852;37.644;2023-12-20T20:14:24;97768.78;;;4.76;60.35
39051;BME280;24805;55.852;37.644;2023-12-20T20:19:30;97783.78;;;4.82;60.81
39051;BME280;24805;55.852;37.644;2023-12-20T20:24:32;97780.28;;;4.75;60.99
39051;BME280;24805;55.852;37.644;2023-12-20T20:29:34;97770.59;;;4.75;60.80
39051;BME280;24805;55.852;37.644;2023-12-20T20:34:37;97768.78;;;4.76;60.87
39051;BME280;24805;55.852;37.644;2023-12-20T20:39:39;97752.41;;;4.59;60.72
39051;BME280;24805;55.852;37.644;2023-12-20T20:44:43;97754.91;;;4.67;61.34
39051;BME280;24805;55.852;37.644;2023-12-20T20:49:45;97746.84;;;4.69;61.52
39051;BME280;24805;55.852;37.644;2023-12-20T20:54:48;97741.59;;;4.69;61.17
39051;BME280;24805;55.852;37.644;2023-12-20T20:59:50;97731.53;;;4.72;61.63
39051;BME280;24805;55.852;37.644;2023-12-20T21:04:52;97727.19;;;4.79;61.66
39051;BME280;24805;55.852;37.644;2023-12-20T21:09:54;97723.81;;;4.85;61.02
39051;BME280;24805;55.852;37.644;2023-12-20T21:14:57;97736.13;;;4.85;61.12
39051;BME280;24805;55.852;37.644;2023-12-20T21:19:59;97717.91;;;4.83;61.12
39051;BME280;24805;55.852;37.644;2023-12-20T21:25:02;97697.47;;;4.79;60.61
39051;BME280;24805;55.852;37.644;2023-12-20T21:30:07;97676.88;;;4.82;60.91
39051;BME280;24805;55.852;37.644;2023-12-20T21:35:12;97675.88;;;4.83;60.83
39051;BME280;24805;55.852;37.644;2023-12-20T21:40:14;97658.75;;;4.88;60.79
39051;BME280;24805;55.852;37.644;2023-12-20T21:45:16;97633.47;;;4.87;61.12
39051;BME280;24805;55.852;37.644;2023-12-20T21:50:19;97626.22;;;4.89;61.34
39051;BME280;24805;55.852;37.644;2023-12-20T21:55:24;97622.22;;;4.93;61.04
39051;BME280;24805;55.852;37.644;2023-12-20T22:00:26;97629.38;;;4.99;60.65
39051;BME280;24805;55.852;37.644;2023-12-20T22:05:29;97615.25;;;5.06;60.91
39051;BME280;24805;55.852;37.644;2023-12-20T22:10:31;97588.41;;;5.11;60.43
39051;BME280;24805;55.852;37.644;2023-12-20T22:15:34;97578.16;;;5.16;61.18
39051;BME280;24805;55.852;37.644;2023-12-20T22:20:36;97571.94;;;5.24;60.61
39051;BME280;24805;55.852;37.644;2023-12-20T22:25:42;97555.59;;;5.28;61.06
39051;BME280;24805;55.852;37.644;2023-12-20T22:30:44;97551.34;;;5.27;60.78
39051;BME280;24805;55.852;37.644;2023-12-20T22:35:47;97546.69;;;5.29;60.98
39051;BME280;24805;55.852;37.644;2023-12-20T22:40:50;97548.06;;;5.25;60.51
39051;BME280;24805;55.852;37.644;2023-12-20T22:45:52;97550.50;;;5.27;61.32
39051;BME280;24805;55.852;37.644;2023-12-20T22:50:56;97544.63;;;5.25;60.95
39051;BME280;24805;55.852;37.644;2023-12-20T22:55:58;97538.94;;;5.21;61.42
39051;BME280;24805;55.852;37.644;2023-12-20T23:01:00;97525.41;;;5.17;61.68
39051;BME280;24805;55.852;37.644;2023-12-20T23:06:03;97508.38;;;5.13;62.79
39051;BME280;24805;55.852;37.644;2023-12-20T23:11:06;97508.94;;;5.09;62.75
39051;BME280;24805;55.852;37.644;2023-12-20T23:16:08;97511.94;;;5.06;63.36
39051;BME280;24805;55.852;37.644;2023-12-20T23:21:14;97497.81;;;5.07;64.11
39051;BME280;24805;55.852;37.644;2023-12-20T23:26:17;97507.41;;;4.93;64.38
39051;BME280;24805;55.852;37.644;2023-12-20T23:31:23;97502.97;;;4.94;66.07
39051;BME280;24805;55.852;37.644;2023-12-20T23:36:28;97507.06;;;4.75;65.92
39051;BME280;24805;55.852;37.644;2023-12-20T23:41:30;97495.22;;;4.58;66.55
39051;BME280;24805;55.852;37.644;2023-12-20T23:46:32;97486.38;;;4.44;67.16
39051;BME280;24805;55.852;37.644;2023-12-20T23:51:35;97485.34;;;4.38;68.25
39051;BME280;24805;55.852;37.644;2023-12-20T23:56:37;97482.38;;;4.27;68.66
